sensor_id;sensor_type;location;lat;lon;timestamp;pressure;altitude;pressure_sealevel;temperature;humidity
50394;BME280;36308;46.312;25.288;2023-11-19T00:00:10;96126.31;;;2.54;72.97
50394;BME280;36308;46.312;25.288;2023-11-19T00:02:41;96125.69;;;2.52;72.49
50394;BME280;36308;46.312;25.288;2023-11-19T00:05:06;96115.69;;;2.47;72.37
50394;BME280;36308;46.312;25.288;2023-11-19T00:07:37;96135.69;;;2.56;72.77
50394;BME280;36308;46.312;25.288;2023-11-19T00:10:09;96131.63;;;2.54;72.72
50394;BME280;36308;46.312;25.288;2023-11-19T00:12:39;96127.13;;;2.54;72.94
50394;BME280;36308;46.312;25.288;2023-11-19T00:15:07;96137.75;;;2.54;72.98
50394;BME280;36308;46.312;25.288;2023-11-19T00:17:40;96157.34;;;2.60;73.30
50394;BME280;36308;46.312;25.288;2023-11-19T00:20:06;96138.16;;;2.51;73.34
50394;BME280;36308;46.312;25.288;2023-11-19T00:22:32;96154.06;;;2.58;73.46
50394;BME280;36308;46.312;25.288;2023-11-19T00:24:58;96139.97;;;2.51;73.41
50394;BME280;36308;46.312;25.288;2023-11-19T00:27:24;96125.91;;;2.43;72.95
50394;BME280;36308;46.312;25.288;2023-11-19T00:29:50;96150.00;;;2.62;72.37
50394;BME280;36308;46.312;25.288;2023-11-19T00:32:15;96130.81;;;2.53;72.46
50394;BME280;36308;46.312;25.288;2023-11-19T00:34:44;96147.94;;;2.64;72.72
50394;BME280;36308;46.312;25.288;2023-11-19T00:37:10;96139.16;;;2.63;72.68
50394;BME280;36308;46.312;25.288;2023-11-19T00:39:35;96137.72;;;2.61;72.39
50394;BME280;36308;46.312;25.288;2023-11-19T00:42:01;96143.44;;;2.65;72.58
50394;BME280;36308;46.312;25.288;2023-11-19T00:44:26;96141.59;;;2.65;72.25
50394;BME280;36308;46.312;25.288;2023-11-19T00:46:52;96136.13;;;2.60;72.63
50394;BME280;36308;46.312;25.288;2023-11-19T00:49:17;96129.97;;;2.53;72.55
50394;BME280;36308;46.312;25.288;2023-11-19T00:51:43;96147.94;;;2.64;72.29
50394;BME280;36308;46.312;25.288;2023-11-19T00:54:08;96145.91;;;2.66;72.40
50394;BME280;36308;46.312;25.288;2023-11-19T00:56:34;96141.81;;;2.63;72.09
50394;BME280;36308;46.312;25.288;2023-11-19T00:58:59;96145.06;;;2.59;72.67
50394;BME280;36308;46.312;25.288;2023-11-19T01:01:25;96139.78;;;2.59;71.86
50394;BME280;36308;46.312;25.288;2023-11-19T01:03:51;96141.22;;;2.61;72.54
50394;BME280;36308;46.312;25.288;2023-11-19T01:06:27;96136.91;;;2.60;72.00
50394;BME280;36308;46.312;25.288;2023-11-19T01:08:53;96140.19;;;2.62;72.71
50394;BME280;36308;46.312;25.288;2023-11-19T01:11:22;96142.66;;;2.64;72.48
50394;BME280;36308;46.312;25.288;2023-11-19T01:13:48;96139.38;;;2.62;71.69
50394;BME280;36308;46.312;25.288;2023-11-19T01:16:14;96143.03;;;2.61;72.63
50394;BME280;36308;46.312;25.288;2023-11-19T01:18:40;96140.38;;;2.61;71.87
50394;BME280;36308;46.312;25.288;2023-11-19T01:21:05;96145.06;;;2.66;71.78
50394;BME280;36308;46.312;25.288;2023-11-19T01:23:31;96145.91;;;2.66;72.14
50394;BME280;36308;46.312;25.288;2023-11-19T01:25:58;96121.19;;;2.59;71.63
50394;BME280;36308;46.312;25.288;2023-11-19T01:28:23;96131.81;;;2.59;71.48
50394;BME280;36308;46.312;25.288;2023-11-19T01:30:52;96138.16;;;2.65;71.74
50394;BME280;36308;46.312;25.288;2023-11-19T01:33:18;96124.69;;;2.59;71.50
50394;BME280;36308;46.312;25.288;2023-11-19T01:35:43;96134.69;;;2.64;71.07
50394;BME280;36308;46.312;25.288;2023-11-19T01:38:09;96128.75;;;2.62;71.32
50394;BME280;36308;46.312;25.288;2023-11-19T01:40:35;96133.66;;;2.65;71.75
50394;BME280;36308;46.312;25.288;2023-11-19T01:43:03;96132.84;;;2.65;71.24
50394;BME280;36308;46.312;25.288;2023-11-19T01:45:30;96138.34;;;2.63;70.98
50394;BME280;36308;46.312;25.288;2023-11-19T01:47:57;96149.56;;;2.65;71.05
50394;BME280;36308;46.312;25.288;2023-11-19T01:50:23;96142.84;;;2.62;70.89
50394;BME280;36308;46.312;25.288;2023-11-19T01:52:52;96150.00;;;2.62;71.46
50394;BME280;36308;46.312;25.288;2023-11-19T01:55:19;96143.03;;;2.61;70.82
50394;BME280;36308;46.312;25.288;2023-11-19T01:57:46;96143.03;;;2.61;70.91
50394;BME280;36308;46.312;25.288;2023-11-19T02:00:12;96141.41;;;2.60;71.35
50394;BME280;36308;46.312;25.288;2023-11-19T02:05:49;96146.72;;;2.60;71.21
50394;BME280;36308;46.312;25.288;2023-11-19T02:08:16;96134.47;;;2.59;70.99
50394;BME280;36308;46.312;25.288;2023-11-19T02:10:41;96139.78;;;2.59;71.04
50394;BME280;36308;46.312;25.288;2023-11-19T02:13:08;96112.44;;;2.52;70.38
50394;BME280;36308;46.312;25.288;2023-11-19T02:15:35;96122.22;;;2.58;70.83
50394;BME280;36308;46.312;25.288;2023-11-19T02:18:22;96119.56;;;2.58;71.17
50394;BME280;36308;46.312;25.288;2023-11-19T02:20:50;96128.16;;;2.60;70.59
50394;BME280;36308;46.312;25.288;2023-11-19T02:23:16;96137.72;;;2.61;70.75
50394;BME280;36308;46.312;25.288;2023-11-19T02:25:43;96129.16;;;2.59;71.34
50394;BME280;36308;46.312;25.288;2023-11-19T02:28:12;96135.91;;;2.61;70.54
50394;BME280;36308;46.312;25.288;2023-11-19T02:30:38;96144.69;;;2.62;71.20
50394;BME280;36308;46.312;25.288;2023-11-19T02:33:04;96141.41;;;2.60;71.12
50394;BME280;36308;46.312;25.288;2023-11-19T02:35:33;96146.31;;;2.63;70.69
50394;BME280;36308;46.312;25.288;2023-11-19T02:37:59;96141.41;;;2.60;71.18
50394;BME280;36308;46.312;25.288;2023-11-19T02:40:26;96151.00;;;2.61;70.95
50394;BME280;36308;46.312;25.288;2023-11-19T02:42:54;96145.06;;;2.59;70.21
50394;BME280;36308;46.312;25.288;2023-11-19T02:45:22;96144.28;;;2.58;70.58
50394;BME280;36308;46.312;25.288;2023-11-19T02:47:48;96152.03;;;2.60;70.43
50394;BME280;36308;46.312;25.288;2023-11-19T02:50:14;96143.84;;;2.55;69.92
50394;BME280;36308;46.312;25.288;2023-11-19T02:52:43;96143.47;;;2.58;70.31
50394;BME280;36308;46.312;25.288;2023-11-19T02:55:10;96138.97;;;2.52;69.95
50394;BME280;36308;46.312;25.288;2023-11-19T02:57:41;96153.88;;;2.59;70.48
50394;BME280;36308;46.312;25.288;2023-11-19T03:00:17;96143.03;;;2.54;70.57
50394;BME280;36308;46.312;25.288;2023-11-19T03:02:44;96155.91;;;2.57;70.17
50394;BME280;36308;46.312;25.288;2023-11-19T03:05:15;96154.69;;;2.53;70.09
50394;BME280;36308;46.312;25.288;2023-11-19T03:07:42;96163.47;;;2.54;70.06
50394;BME280;36308;46.312;25.288;2023-11-19T03:10:12;96163.03;;;2.57;70.71
50394;BME280;36308;46.312;25.288;2023-11-19T03:12:41;96165.31;;;2.53;70.75
50394;BME280;36308;46.312;25.288;2023-11-19T03:15:07;96158.16;;;2.54;70.47
50394;BME280;36308;46.312;25.288;2023-11-19T03:17:41;96153.25;;;2.51;70.03
50394;BME280;36308;46.312;25.288;2023-11-19T03:20:09;96169.16;;;2.51;70.79
50394;BME280;36308;46.312;25.288;2023-11-19T03:22:39;96156.94;;;2.43;70.33
50394;BME280;36308;46.312;25.288;2023-11-19T03:25:04;96161.81;;;2.46;69.59
50394;BME280;36308;46.312;25.288;2023-11-19T03:27:33;96140.19;;;2.29;69.94
50394;BME280;36308;46.312;25.288;2023-11-19T03:29:59;96160.16;;;2.38;70.14
50394;BME280;36308;46.312;25.288;2023-11-19T03:32:24;96164.25;;;2.34;70.45
50394;BME280;36308;46.312;25.288;2023-11-19T03:34:50;96157.53;;;2.25;69.85
50394;BME280;36308;46.312;25.288;2023-11-19T03:37:16;96167.94;;;2.27;69.97
50394;BME280;36308;46.312;25.288;2023-11-19T03:39:42;96165.25;;;2.20;70.52
50394;BME280;36308;46.312;25.288;2023-11-19T03:42:08;96164.03;;;2.16;70.87
50394;BME280;36308;46.312;25.288;2023-11-19T03:44:33;96144.63;;;2.02;70.15
50394;BME280;36308;46.312;25.288;2023-11-19T03:46:59;96158.09;;;2.07;70.56
50394;BME280;36308;46.312;25.288;2023-11-19T03:49:24;96150.75;;;2.02;70.78
50394;BME280;36308;46.312;25.288;2023-11-19T03:51:50;96138.09;;;1.91;71.14
50394;BME280;36308;46.312;25.288;2023-11-19T03:54:15;96133.34;;;1.87;70.65
50394;BME280;36308;46.312;25.288;2023-11-19T03:56:40;96129.88;;;1.79;70.84
50394;BME280;36308;46.312;25.288;2023-11-19T03:59:06;96149.50;;;1.85;71.45
50394;BME280;36308;46.312;25.288;2023-11-19T04:01:32;96145.59;;;1.81;71.28
50394;BME280;36308;46.312;25.288;2023-11-19T04:03:57;96120.88;;;1.67;71.52
50394;BME280;36308;46.312;25.288;2023-11-19T04:06:23;96130.66;;;1.67;71.19
50394;BME280;36308;46.312;25.288;2023-11-19T04:08:48;96134.38;;;1.72;71.44
50394;BME280;36308;46.312;25.288;2023-11-19T04:11:14;96117.81;;;1.64;71.34
50394;BME280;36308;46.312;25.288;2023-11-19T04:13:40;96138.81;;;1.72;71.84
50394;BME280;36308;46.312;25.288;2023-11-19T04:16:06;96135.56;;;1.70;71.60
50394;BME280;36308;46.312;25.288;2023-11-19T04:18:32;96135.97;;;1.67;72.25
50394;BME280;36308;46.312;25.288;2023-11-19T04:20:57;96143.72;;;1.68;72.19
50394;BME280;36308;46.312;25.288;2023-11-19T04:23:24;96146.56;;;1.67;71.41
50394;BME280;36308;46.312;25.288;2023-11-19T04:25:51;96146.94;;;1.64;71.40
50394;BME280;36308;46.312;25.288;2023-11-19T04:28:16;96149.41;;;1.65;71.94
50394;BME280;36308;46.312;25.288;2023-11-19T04:30:42;96127.75;;;1.48;71.99
50394;BME280;36308;46.312;25.288;2023-11-19T04:33:09;96138.56;;;1.53;71.99
50394;BME280;36308;46.312;25.288;2023-11-19T04:35:35;96153.44;;;1.54;71.82
50394;BME280;36308;46.312;25.288;2023-11-19T04:38:00;96162.03;;;1.56;71.73
50394;BME280;36308;46.312;25.288;2023-11-19T04:40:26;96165.06;;;1.53;71.57
50394;BME280;36308;46.312;25.288;2023-11-19T04:42:51;96152.41;;;1.49;71.98
50394;BME280;36308;46.312;25.288;2023-11-19T04:45:17;96141.97;;;1.40;72.06
50394;BME280;36308;46.312;25.288;2023-11-19T04:47:43;96145.66;;;1.39;71.89
50394;BME280;36308;46.312;25.288;2023-11-19T04:53:30;96133.81;;;1.35;72.08
50394;BME280;36308;46.312;25.288;2023-11-19T04:55:55;96137.47;;;1.34;72.04
50394;BME280;36308;46.312;25.288;2023-11-19T05:01:46;96157.84;;;1.34;72.15
50394;BME280;36308;46.312;25.288;2023-11-19T05:04:13;96148.03;;;1.28;71.42
50394;BME280;36308;46.312;25.288;2023-11-19T05:06:38;96148.81;;;1.21;71.82
50394;BME280;36308;46.312;25.288;2023-11-19T05:09:04;96141.91;;;1.20;71.97
50394;BME280;36308;46.312;25.288;2023-11-19T05:11:33;96128.56;;;1.07;72.46
50394;BME280;36308;46.312;25.288;2023-11-19T05:13:59;96133.44;;;1.04;72.09
50394;BME280;36308;46.312;25.288;2023-11-19T05:16:25;96149.53;;;1.02;72.09
50394;BME280;36308;46.312;25.288;2023-11-19T05:18:51;96147.66;;;0.96;72.61
50394;BME280;36308;46.312;25.288;2023-11-19T05:21:17;96141.50;;;0.89;72.62
50394;BME280;36308;46.312;25.288;2023-11-19T05:23:43;96145.56;;;0.91;71.96
50394;BME280;36308;46.312;25.288;2023-11-19T05:26:08;96149.06;;;0.92;72.44
50394;BME280;36308;46.312;25.288;2023-11-19T05:28:37;96127.38;;;0.75;72.76
50394;BME280;36308;46.312;25.288;2023-11-19T05:31:04;96135.97;;;0.84;72.97
50394;BME280;36308;46.312;25.288;2023-11-19T05:33:31;96144.91;;;0.83;72.40
50394;BME280;36308;46.312;25.288;2023-11-19T05:35:56;96134.91;;;0.78;72.99
50394;BME280;36308;46.312;25.288;2023-11-19T05:38:22;96123.03;;;0.67;72.68
50394;BME280;36308;46.312;25.288;2023-11-19T05:40:47;96148.53;;;0.75;73.13
50394;BME280;36308;46.312;25.288;2023-11-19T05:43:13;96147.47;;;0.69;72.77
50394;BME280;36308;46.312;25.288;2023-11-19T05:45:40;96160.72;;;0.69;72.69
50394;BME280;36308;46.312;25.288;2023-11-19T05:48:05;96154.94;;;0.59;72.57
50394;BME280;36308;46.312;25.288;2023-11-19T05:50:31;96160.22;;;0.59;72.97
50394;BME280;36308;46.312;25.288;2023-11-19T05:52:56;96167.13;;;0.60;73.05
50394;BME280;36308;46.312;25.288;2023-11-19T05:55:22;96162.38;;;0.49;72.57
50394;BME280;36308;46.312;25.288;2023-11-19T05:57:49;96171.94;;;0.50;73.08
50394;BME280;36308;46.312;25.288;2023-11-19T06:00:17;96156.84;;;0.44;73.32
50394;BME280;36308;46.312;25.288;2023-11-19T06:02:43;96136.19;;;0.32;73.10
50394;BME280;36308;46.312;25.288;2023-11-19T06:05:08;96162.16;;;0.44;73.91
50394;BME280;36308;46.312;25.288;2023-11-19T06:07:35;96156.22;;;0.42;73.31
50394;BME280;36308;46.312;25.288;2023-11-19T06:10:02;96163.53;;;0.39;73.67
50394;BME280;36308;46.312;25.288;2023-11-19T06:12:30;96173.09;;;0.40;74.05
50394;BME280;36308;46.312;25.288;2023-11-19T06:14:57;96166.53;;;0.36;73.52
50394;BME280;36308;46.312;25.288;2023-11-19T06:17:22;96181.41;;;0.37;73.74
50394;BME280;36308;46.312;25.288;2023-11-19T06:19:48;96171.34;;;0.26;73.60
50394;BME280;36308;46.312;25.288;2023-11-19T06:22:13;96187.25;;;0.33;73.66
50394;BME280;36308;46.312;25.288;2023-11-19T06:24:39;96186.44;;;0.32;74.03
50394;BME280;36308;46.312;25.288;2023-11-19T06:27:04;96186.09;;;0.35;73.97
50394;BME280;36308;46.312;25.288;2023-11-19T06:29:30;96191.56;;;0.34;74.19
50394;BME280;36308;46.312;25.288;2023-11-19T06:31:55;96201.09;;;0.35;74.21
50394;BME280;36308;46.312;25.288;2023-11-19T06:34:21;96194.81;;;0.36;74.53
50394;BME280;36308;46.312;25.288;2023-11-19T06:36:46;96181.16;;;0.32;74.05
50394;BME280;36308;46.312;25.288;2023-11-19T06:39:13;96183.63;;;0.34;74.80
50394;BME280;36308;46.312;25.288;2023-11-19T06:41:44;96177.88;;;0.30;74.52
50394;BME280;36308;46.312;25.288;2023-11-19T06:44:10;96184.81;;;0.31;74.60
50394;BME280;36308;46.312;25.288;2023-11-19T06:46:35;96199.53;;;0.40;74.99
50394;BME280;36308;46.312;25.288;2023-11-19T06:49:01;96212.75;;;0.40;74.62
50394;BME280;36308;46.312;25.288;2023-11-19T06:51:26;96191.72;;;0.32;74.55
50394;BME280;36308;46.312;25.288;2023-11-19T06:53:53;96199.09;;;0.37;75.30
50394;BME280;36308;46.312;25.288;2023-11-19T06:56:21;96193.00;;;0.36;74.73
50394;BME280;36308;46.312;25.288;2023-11-19T06:58:47;96212.63;;;0.49;75.38
50394;BME280;36308;46.312;25.288;2023-11-19T07:04:35;96193.94;;;0.50;74.96
50394;BME280;36308;46.312;25.288;2023-11-19T07:07:01;96196.06;;;0.62;75.03
50394;BME280;36308;46.312;25.288;2023-11-19T07:09:26;96187.53;;;0.66;74.96
50394;BME280;36308;46.312;25.288;2023-11-19T07:11:52;96212.09;;;0.82;75.72
50394;BME280;36308;46.312;25.288;2023-11-19T07:14:19;96209.31;;;0.90;75.42
50394;BME280;36308;46.312;25.288;2023-11-19T07:16:45;96206.53;;;0.98;75.04
50394;BME280;36308;46.312;25.288;2023-11-19T07:19:11;96189.63;;;0.99;75.01
50394;BME280;36308;46.312;25.288;2023-11-19T07:21:41;96199.28;;;1.13;75.09
50394;BME280;36308;46.312;25.288;2023-11-19T07:24:12;96197.50;;;1.20;74.70
50394;BME280;36308;46.312;25.288;2023-11-19T07:26:43;96185.72;;;1.23;74.65
50394;BME280;36308;46.312;25.288;2023-11-19T07:29:09;96184.97;;;1.36;74.44
50394;BME280;36308;46.312;25.288;2023-11-19T07:31:34;96171.09;;;1.34;73.87
50394;BME280;36308;46.312;25.288;2023-11-19T07:34:00;96177.47;;;1.46;74.04
50394;BME280;36308;46.312;25.288;2023-11-19T07:36:25;96176.44;;;1.47;73.94
50394;BME280;36308;46.312;25.288;2023-11-19T07:38:51;96167.50;;;1.48;73.57
50394;BME280;36308;46.312;25.288;2023-11-19T07:41:16;96192.06;;;1.70;74.03
50394;BME280;36308;46.312;25.288;2023-11-19T07:43:45;96171.84;;;1.69;73.55
50394;BME280;36308;46.312;25.288;2023-11-19T07:46:12;96184.94;;;1.84;73.66
50394;BME280;36308;46.312;25.288;2023-11-19T07:48:39;96175.16;;;1.85;73.62
50394;BME280;36308;46.312;25.288;2023-11-19T07:51:04;96160.91;;;1.92;73.08
50394;BME280;36308;46.312;25.288;2023-11-19T07:53:30;96179.72;;;2.11;72.36
50394;BME280;36308;46.312;25.288;2023-11-19T07:55:55;96181.59;;;2.23;72.77
50394;BME280;36308;46.312;25.288;2023-11-19T07:58:21;96175.28;;;2.31;71.59
50394;BME280;36308;46.312;25.288;2023-11-19T08:00:46;96189.78;;;2.42;70.95
50394;BME280;36308;46.312;25.288;2023-11-19T08:03:12;96181.81;;;2.35;70.10
50394;BME280;36308;46.312;25.288;2023-11-19T08:05:37;96171.63;;;2.39;69.76
50394;BME280;36308;46.312;25.288;2023-11-19T08:08:03;96178.56;;;2.47;70.40
50394;BME280;36308;46.312;25.288;2023-11-19T08:10:28;96167.75;;;2.41;69.65
50394;BME280;36308;46.312;25.288;2023-11-19T08:12:54;96164.66;;;2.45;69.44
50394;BME280;36308;46.312;25.288;2023-11-19T08:15:20;96163.06;;;2.43;69.80
50394;BME280;36308;46.312;25.288;2023-11-19T08:17:45;96162.25;;;2.43;70.38
50394;BME280;36308;46.312;25.288;2023-11-19T08:20:11;96163.06;;;2.43;70.01
50394;BME280;36308;46.312;25.288;2023-11-19T08:22:37;96172.44;;;2.53;70.12
50394;BME280;36308;46.312;25.288;2023-11-19T08:25:04;96162.66;;;2.53;70.38
50394;BME280;36308;46.312;25.288;2023-11-19T08:27:30;96161.81;;;2.53;69.87
50394;BME280;36308;46.312;25.288;2023-11-19T08:29:56;96155.50;;;2.54;69.44
50394;BME280;36308;46.312;25.288;2023-11-19T08:32:25;96149.16;;;2.55;69.71
50394;BME280;36308;46.312;25.288;2023-11-19T08:34:51;96168.97;;;2.66;69.28
50394;BME280;36308;46.312;25.288;2023-11-19T08:37:16;96152.03;;;2.60;69.70
50394;BME280;36308;46.312;25.288;2023-11-19T08:39:50;96166.34;;;2.72;70.03
50394;BME280;36308;46.312;25.288;2023-11-19T08:42:16;96176.34;;;2.77;69.34
50394;BME280;36308;46.312;25.288;2023-11-19T08:44:43;96175.09;;;2.79;69.57
50394;BME280;36308;46.312;25.288;2023-11-19T08:47:12;96167.94;;;2.80;69.29
50394;BME280;36308;46.312;25.288;2023-11-19T08:49:39;96179.81;;;2.91;69.64
50394;BME280;36308;46.312;25.288;2023-11-19T08:52:05;96177.53;;;2.94;69.35
50394;BME280;36308;46.312;25.288;2023-11-19T08:54:32;96176.53;;;2.95;68.62
50394;BME280;36308;46.312;25.288;2023-11-19T08:56:58;96165.06;;;2.88;68.59
50394;BME280;36308;46.312;25.288;2023-11-19T08:59:24;96166.91;;;2.94;68.98
50394;BME280;36308;46.312;25.288;2023-11-19T09:01:50;96174.91;;;3.01;68.54
50394;BME280;36308;46.312;25.288;2023-11-19T09:04:15;96160.38;;;2.90;68.90
50394;BME280;36308;46.312;25.288;2023-11-19T09:06:41;96170.19;;;3.03;68.10
50394;BME280;36308;46.312;25.288;2023-11-19T09:09:08;96177.31;;;3.02;67.75
50394;BME280;36308;46.312;25.288;2023-11-19T09:11:33;96159.78;;;2.95;67.82
50394;BME280;36308;46.312;25.288;2023-11-19T09:13:59;96169.16;;;3.04;68.45
50394;BME280;36308;46.312;25.288;2023-11-19T09:16:24;96164.47;;;2.99;67.74
50394;BME280;36308;46.312;25.288;2023-11-19T09:18:51;96160.56;;;3.02;68.21
50394;BME280;36308;46.312;25.288;2023-11-19T09:21:16;96143.84;;;2.95;67.85
50394;BME280;36308;46.312;25.288;2023-11-19T09:23:42;96141.81;;;2.97;67.82
50394;BME280;36308;46.312;25.288;2023-11-19T09:26:10;96160.19;;;3.05;67.67
50394;BME280;36308;46.312;25.288;2023-11-19T09:28:35;96118.72;;;2.84;67.22
50394;BME280;36308;46.312;25.288;2023-11-19T09:31:01;96136.50;;;2.97;67.82
50394;BME280;36308;46.312;25.288;2023-11-19T09:33:30;96142.41;;;3.06;67.51
50394;BME280;36308;46.312;25.288;2023-11-19T09:35:55;96122.78;;;3.00;68.05
50394;BME280;36308;46.312;25.288;2023-11-19T09:38:21;96136.28;;;3.05;67.92
50394;BME280;36308;46.312;25.288;2023-11-19T09:40:46;96140.13;;;3.02;67.75
50394;BME280;36308;46.312;25.288;2023-11-19T09:43:14;96155.66;;;3.12;67.57
50394;BME280;36308;46.312;25.288;2023-11-19T09:45:50;96149.72;;;3.17;67.04
50394;BME280;36308;46.312;25.288;2023-11-19T09:48:19;96141.53;;;3.18;66.63
50394;BME280;36308;46.312;25.288;2023-11-19T09:50:48;96143.16;;;3.19;67.21
50394;BME280;36308;46.312;25.288;2023-11-19T09:53:15;96125.41;;;3.13;66.75
50394;BME280;36308;46.312;25.288;2023-11-19T09:55:43;96130.72;;;3.13;66.42
50394;BME280;36308;46.312;25.288;2023-11-19T09:58:12;96142.56;;;3.17;66.26
50394;BME280;36308;46.312;25.288;2023-11-19T10:00:40;96141.94;;;3.15;66.69
50394;BME280;36308;46.312;25.288;2023-11-19T10:03:07;96134.81;;;3.09;66.32
50394;BME280;36308;46.312;25.288;2023-11-19T10:05:34;96127.09;;;3.01;65.89
50394;BME280;36308;46.312;25.288;2023-11-19T10:08:01;96149.56;;;3.05;66.46
50394;BME280;36308;46.312;25.288;2023-11-19T10:10:28;96152.22;;;3.05;66.49
50394;BME280;36308;46.312;25.288;2023-11-19T10:19:39;96151.34;;;3.11;66.28
50394;BME280;36308;46.312;25.288;2023-11-19T10:22:05;96140.94;;;3.10;66.54
50394;BME280;36308;46.312;25.288;2023-11-19T10:24:32;96141.75;;;3.17;66.63
50394;BME280;36308;46.312;25.288;2023-11-19T10:27:04;96104.97;;;3.07;66.71
50394;BME280;36308;46.312;25.288;2023-11-19T10:29:36;96118.84;;;3.22;66.84
50394;BME280;36308;46.312;25.288;2023-11-19T10:32:03;96102.69;;;3.17;66.57
50394;BME280;36308;46.312;25.288;2023-11-19T10:34:28;96115.97;;;3.31;66.69
50394;BME280;36308;46.312;25.288;2023-11-19T10:36:55;96105.34;;;3.31;66.90
50394;BME280;36308;46.312;25.288;2023-11-19T10:39:21;96111.41;;;3.38;66.71
50394;BME280;36308;46.312;25.288;2023-11-19T10:41:46;96112.63;;;3.42;66.20
50394;BME280;36308;46.312;25.288;2023-11-19T10:44:12;96104.91;;;3.40;66.33
50394;BME280;36308;46.312;25.288;2023-11-19T10:46:39;96113.84;;;3.46;66.44
50394;BME280;36308;46.312;25.288;2023-11-19T10:49:09;96097.28;;;3.44;66.38
50394;BME280;36308;46.312;25.288;2023-11-19T10:51:35;96078.31;;;3.34;66.48
50394;BME280;36308;46.312;25.288;2023-11-19T10:54:05;96088.31;;;3.45;65.94
50394;BME280;36308;46.312;25.288;2023-11-19T10:56:32;96086.06;;;3.42;66.40
50394;BME280;36308;46.312;25.288;2023-11-19T10:58:59;96090.97;;;3.45;66.06
50394;BME280;36308;46.312;25.288;2023-11-19T11:01:29;96105.22;;;3.51;66.20
50394;BME280;36308;46.312;25.288;2023-11-19T11:03:59;96106.44;;;3.55;65.65
50394;BME280;36308;46.312;25.288;2023-11-19T11:06:27;96113.00;;;3.52;65.87
50394;BME280;36308;46.312;25.288;2023-11-19T11:08:54;96115.25;;;3.55;65.18
50394;BME280;36308;46.312;25.288;2023-11-19T11:11:20;96117.47;;;3.58;65.04
50394;BME280;36308;46.312;25.288;2023-11-19T11:13:49;96117.69;;;3.57;65.50
50394;BME280;36308;46.312;25.288;2023-11-19T11:16:19;96123.22;;;3.55;65.15
50394;BME280;36308;46.312;25.288;2023-11-19T11:18:46;96108.13;;;3.49;65.24
50394;BME280;36308;46.312;25.288;2023-11-19T11:21:17;96124.44;;;3.59;65.57
50394;BME280;36308;46.312;25.288;2023-11-19T11:37:46;96113.56;;;3.68;64.62
50394;BME280;36308;46.312;25.288;2023-11-19T11:40:15;96124.81;;;3.70;64.57
50394;BME280;36308;46.312;25.288;2023-11-19T11:42:43;96121.16;;;3.64;64.19
50394;BME280;36308;46.312;25.288;2023-11-19T11:45:10;96115.03;;;3.63;64.16
50394;BME280;36308;46.312;25.288;2023-11-19T11:50:12;96118.88;;;3.68;64.37
50394;BME280;36308;46.312;25.288;2023-11-19T11:55:25;96113.34;;;3.69;64.11
50394;BME280;36308;46.312;25.288;2023-11-19T11:57:51;96116.22;;;3.68;63.70
50394;BME280;36308;46.312;25.288;2023-11-19T12:00:42;96130.91;;;3.77;63.33
50394;BME280;36308;46.312;25.288;2023-11-19T12:03:08;96119.44;;;3.76;63.84
50394;BME280;36308;46.312;25.288;2023-11-19T12:05:48;96121.47;;;3.81;63.49
50394;BME280;36308;46.312;25.288;2023-11-19T12:08:15;96122.69;;;3.85;63.64
50394;BME280;36308;46.312;25.288;2023-11-19T12:10:51;96122.69;;;3.85;63.59
50394;BME280;36308;46.312;25.288;2023-11-19T12:13:23;96129.03;;;3.84;63.75
50394;BME280;36308;46.312;25.288;2023-11-19T12:18:26;96116.94;;;3.88;63.85
50394;BME280;36308;46.312;25.288;2023-11-19T12:20:52;96120.22;;;3.90;63.94
50394;BME280;36308;46.312;25.288;2023-11-19T12:23:17;96116.50;;;3.91;63.57
50394;BME280;36308;46.312;25.288;2023-11-19T12:25:43;96107.50;;;3.92;63.91
50394;BME280;36308;46.312;25.288;2023-11-19T12:28:14;96097.72;;;3.86;63.81
50394;BME280;36308;46.312;25.288;2023-11-19T12:30:43;96107.06;;;3.95;63.57
50394;BME280;36308;46.312;25.288;2023-11-19T12:33:10;96110.31;;;3.97;63.79
50394;BME280;36308;46.312;25.288;2023-11-19T12:35:43;96105.41;;;3.94;63.21
50394;BME280;36308;46.312;25.288;2023-11-19T12:38:29;96108.69;;;3.96;63.35
50394;BME280;36308;46.312;25.288;2023-11-19T12:41:04;96101.31;;;3.98;63.04
50394;BME280;36308;46.312;25.288;2023-11-19T12:43:29;96111.94;;;3.98;62.91
50394;BME280;36308;46.312;25.288;2023-11-19T12:45:55;96102.34;;;3.97;63.21
50394;BME280;36308;46.312;25.288;2023-11-19T12:48:21;96105.81;;;3.98;63.47
50394;BME280;36308;46.312;25.288;2023-11-19T12:53:18;96107.81;;;4.02;63.77
50394;BME280;36308;46.312;25.288;2023-11-19T12:55:44;96094.97;;;3.99;63.47
50394;BME280;36308;46.312;25.288;2023-11-19T12:58:10;96108.44;;;4.04;63.30
50394;BME280;36308;46.312;25.288;2023-11-19T13:00:35;96090.66;;;4.05;63.25
50394;BME280;36308;46.312;25.288;2023-11-19T13:03:01;96094.13;;;4.05;63.23
50394;BME280;36308;46.312;25.288;2023-11-19T13:05:33;96093.50;;;4.03;62.73
50394;BME280;36308;46.312;25.288;2023-11-19T13:08:04;96107.81;;;4.02;63.41
50394;BME280;36308;46.312;25.288;2023-11-19T13:10:31;96081.31;;;3.89;62.94
50394;BME280;36308;46.312;25.288;2023-11-19T13:13:07;96095.97;;;3.98;63.49
50394;BME280;36308;46.312;25.288;2023-11-19T13:15:35;96093.13;;;4.00;63.47
50394;BME280;36308;46.312;25.288;2023-11-19T13:18:02;96074.53;;;3.93;63.16
50394;BME280;36308;46.312;25.288;2023-11-19T13:20:28;96073.09;;;3.97;63.62
50394;BME280;36308;46.312;25.288;2023-11-19T13:22:59;96067.38;;;3.94;63.44
50394;BME280;36308;46.312;25.288;2023-11-19T13:25:25;96071.03;;;3.99;63.59
50394;BME280;36308;46.312;25.288;2023-11-19T13:27:51;96065.97;;;3.91;63.37
50394;BME280;36308;46.312;25.288;2023-11-19T13:30:17;96065.97;;;3.91;64.29
50394;BME280;36308;46.312;25.288;2023-11-19T13:32:43;96096.78;;;4.05;63.41
50394;BME280;36308;46.312;25.288;2023-11-19T13:35:11;96094.31;;;4.04;63.80
50394;BME280;36308;46.312;25.288;2023-11-19T13:37:38;96073.94;;;3.91;63.74
50394;BME280;36308;46.312;25.288;2023-11-19T13:40:04;96080.03;;;3.98;63.79
50394;BME280;36308;46.312;25.288;2023-11-19T13:42:30;96087.78;;;4.00;63.86